sensor_id;sensor_type;location;lat;lon;timestamp;P1;durP1;ratioP1;P2;durP2;ratioP2
325;SDS011;150;52.352;14.058;2022-12-10T00:01:41;14.68;;;9.38;;
325;SDS011;150;52.352;14.058;2022-12-10T00:04:09;15.75;;;10.02;;
325;SDS011;150;52.352;14.058;2022-12-10T00:06:37;18.85;;;11.85;;
325;SDS011;150;52.352;14.058;2022-12-10T00:09:05;13.70;;;10.23;;
325;SDS011;150;52.352;14.058;2022-12-10T00:11:34;15.45;;;10.02;;
325;SDS011;150;52.352;14.058;2022-12-10T00:14:01;12.73;;;8.90;;
325;SDS011;150;52.352;14.058;2022-12-10T00:16:28;15.68;;;9.73;;
325;SDS011;150;52.352;14.058;2022-12-10T00:18:58;16.30;;;9.90;;
325;SDS011;150;52.352;14.058;2022-12-10T00:21:25;12.45;;;9.43;;
325;SDS011;150;52.352;14.058;2022-12-10T00:23:54;20.38;;;11.68;;
325;SDS011;150;52.352;14.058;2022-12-10T00:26:22;14.02;;;9.43;;
325;SDS011;150;52.352;14.058;2022-12-10T00:28:51;16.10;;;10.13;;
325;SDS011;150;52.352;14.058;2022-12-10T00:31:19;16.38;;;9.93;;
325;SDS011;150;52.352;14.058;2022-12-10T00:33:49;14.20;;;8.90;;
325;SDS011;150;52.352;14.058;2022-12-10T00:36:16;14.85;;;10.00;;
325;SDS011;150;52.352;14.058;2022-12-10T00:38:45;14.75;;;10.82;;
325;SDS011;150;52.352;14.058;2022-12-10T00:41:13;15.43;;;9.35;;
325;SDS011;150;52.352;14.058;2022-12-10T00:43:41;15.37;;;10.80;;
325;SDS011;150;52.352;14.058;2022-12-10T00:46:10;16.92;;;11.05;;
325;SDS011;150;52.352;14.058;2022-12-10T00:48:37;17.07;;;10.00;;
325;SDS011;150;52.352;14.058;2022-12-10T00:51:05;14.63;;;10.10;;
325;SDS011;150;52.352;14.058;2022-12-10T00:53:34;16.75;;;10.48;;
325;SDS011;150;52.352;14.058;2022-12-10T00:56:03;14.38;;;10.90;;
325;SDS011;150;52.352;14.058;2022-12-10T00:58:30;15.60;;;10.15;;
325;SDS011;150;52.352;14.058;2022-12-10T01:01:06;15.68;;;10.77;;
325;SDS011;150;52.352;14.058;2022-12-10T01:03:38;19.70;;;11.32;;
325;SDS011;150;52.352;14.058;2022-12-10T01:06:10;13.93;;;10.00;;
325;SDS011;150;52.352;14.058;2022-12-10T01:08:39;14.35;;;10.27;;
325;SDS011;150;52.352;14.058;2022-12-10T01:11:09;19.10;;;11.00;;
325;SDS011;150;52.352;14.058;2022-12-10T01:13:37;16.00;;;9.63;;
325;SDS011;150;52.352;14.058;2022-12-10T01:16:06;17.80;;;9.93;;
325;SDS011;150;52.352;14.058;2022-12-10T01:18:36;14.52;;;10.30;;
325;SDS011;150;52.352;14.058;2022-12-10T01:21:04;17.00;;;10.77;;
325;SDS011;150;52.352;14.058;2022-12-10T01:23:32;14.15;;;10.25;;
325;SDS011;150;52.352;14.058;2022-12-10T01:26:00;16.20;;;10.88;;
325;SDS011;150;52.352;14.058;2022-12-10T01:28:29;15.18;;;10.50;;
325;SDS011;150;52.352;14.058;2022-12-10T01:31:00;17.27;;;9.70;;
325;SDS011;150;52.352;14.058;2022-12-10T01:33:38;15.77;;;9.60;;
325;SDS011;150;52.352;14.058;2022-12-10T01:36:35;17.33;;;11.05;;
325;SDS011;150;52.352;14.058;2022-12-10T01:39:04;13.00;;;9.63;;
325;SDS011;150;52.352;14.058;2022-12-10T01:41:34;18.63;;;11.70;;
325;SDS011;150;52.352;14.058;2022-12-10T01:44:04;15.43;;;9.40;;
325;SDS011;150;52.352;14.058;2022-12-10T01:46:53;19.08;;;10.80;;
325;SDS011;150;52.352;14.058;2022-12-10T01:49:23;19.20;;;11.65;;
325;SDS011;150;52.352;14.058;2022-12-10T01:51:53;18.02;;;10.35;;
325;SDS011;150;52.352;14.058;2022-12-10T01:54:23;18.17;;;11.73;;
325;SDS011;150;52.352;14.058;2022-12-10T01:56:54;17.17;;;10.73;;
325;SDS011;150;52.352;14.058;2022-12-10T01:59:24;19.13;;;11.40;;
325;SDS011;150;52.352;14.058;2022-12-10T02:01:52;15.73;;;10.48;;
325;SDS011;150;52.352;14.058;2022-12-10T02:04:25;17.20;;;11.00;;
325;SDS011;150;52.352;14.058;2022-12-10T02:07:06;19.95;;;11.48;;
325;SDS011;150;52.352;14.058;2022-12-10T02:09:42;18.27;;;11.50;;
325;SDS011;150;52.352;14.058;2022-12-10T02:12:11;14.60;;;9.90;;
325;SDS011;150;52.352;14.058;2022-12-10T02:14:48;14.63;;;9.85;;
325;SDS011;150;52.352;14.058;2022-12-10T02:17:23;16.63;;;10.65;;
325;SDS011;150;52.352;14.058;2022-12-10T02:19:56;18.80;;;11.55;;
325;SDS011;150;52.352;14.058;2022-12-10T02:22:30;17.03;;;9.90;;
325;SDS011;150;52.352;14.058;2022-12-10T02:24:59;15.25;;;9.93;;
325;SDS011;150;52.352;14.058;2022-12-10T02:27:30;16.25;;;10.77;;
325;SDS011;150;52.352;14.058;2022-12-10T02:30:03;17.30;;;10.90;;
325;SDS011;150;52.352;14.058;2022-12-10T02:32:33;21.15;;;12.27;;
325;SDS011;150;52.352;14.058;2022-12-10T02:35:06;18.48;;;11.00;;
325;SDS011;150;52.352;14.058;2022-12-10T02:37:38;18.55;;;11.18;;
325;SDS011;150;52.352;14.058;2022-12-10T02:40:12;18.33;;;11.43;;
325;SDS011;150;52.352;14.058;2022-12-10T02:42:42;15.02;;;10.18;;
325;SDS011;150;52.352;14.058;2022-12-10T02:45:13;14.23;;;9.90;;
325;SDS011;150;52.352;14.058;2022-12-10T02:47:41;16.13;;;9.73;;
325;SDS011;150;52.352;14.058;2022-12-10T02:50:09;18.30;;;10.40;;
325;SDS011;150;52.352;14.058;2022-12-10T02:52:39;16.38;;;10.32;;
325;SDS011;150;52.352;14.058;2022-12-10T02:55:08;16.83;;;10.88;;
325;SDS011;150;52.352;14.058;2022-12-10T02:57:39;19.63;;;10.65;;
325;SDS011;150;52.352;14.058;2022-12-10T03:00:15;18.35;;;10.82;;
325;SDS011;150;52.352;14.058;2022-12-10T03:02:48;19.02;;;11.40;;
325;SDS011;150;52.352;14.058;2022-12-10T03:05:36;14.45;;;9.93;;
325;SDS011;150;52.352;14.058;2022-12-10T03:08:11;18.05;;;11.07;;
325;SDS011;150;52.352;14.058;2022-12-10T03:10:43;15.83;;;10.73;;
325;SDS011;150;52.352;14.058;2022-12-10T03:13:19;18.00;;;10.82;;
325;SDS011;150;52.352;14.058;2022-12-10T03:15:50;14.82;;;11.07;;
325;SDS011;150;52.352;14.058;2022-12-10T03:18:19;14.70;;;9.60;;
325;SDS011;150;52.352;14.058;2022-12-10T03:20:47;18.30;;;10.55;;
325;SDS011;150;52.352;14.058;2022-12-10T03:23:17;14.68;;;9.80;;
325;SDS011;150;52.352;14.058;2022-12-10T03:25:46;17.47;;;11.03;;
325;SDS011;150;52.352;14.058;2022-12-10T03:28:15;15.68;;;10.60;;
325;SDS011;150;52.352;14.058;2022-12-10T03:30:45;14.43;;;9.80;;
325;SDS011;150;52.352;14.058;2022-12-10T03:33:15;17.02;;;11.02;;
325;SDS011;150;52.352;14.058;2022-12-10T03:35:42;18.55;;;11.38;;
325;SDS011;150;52.352;14.058;2022-12-10T03:38:09;17.73;;;11.87;;
325;SDS011;150;52.352;14.058;2022-12-10T03:40:36;16.27;;;10.55;;
325;SDS011;150;52.352;14.058;2022-12-10T03:43:03;17.63;;;10.10;;
325;SDS011;150;52.352;14.058;2022-12-10T03:45:32;15.60;;;10.30;;
325;SDS011;150;52.352;14.058;2022-12-10T03:47:59;20.77;;;10.70;;
325;SDS011;150;52.352;14.058;2022-12-10T03:50:28;17.23;;;13.35;;
325;SDS011;150;52.352;14.058;2022-12-10T03:52:54;19.85;;;13.45;;
325;SDS011;150;52.352;14.058;2022-12-10T03:55:21;18.55;;;11.35;;
325;SDS011;150;52.352;14.058;2022-12-10T03:57:49;18.33;;;11.45;;
325;SDS011;150;52.352;14.058;2022-12-10T04:00:16;18.17;;;12.00;;
325;SDS011;150;52.352;14.058;2022-12-10T04:02:43;17.43;;;12.20;;
325;SDS011;150;52.352;14.058;2022-12-10T04:05:10;14.27;;;10.75;;
325;SDS011;150;52.352;14.058;2022-12-10T04:07:39;18.20;;;11.35;;
325;SDS011;150;52.352;14.058;2022-12-10T04:10:06;13.40;;;9.80;;
325;SDS011;150;52.352;14.058;2022-12-10T04:12:33;19.50;;;13.18;;
325;SDS011;150;52.352;14.058;2022-12-10T04:15:01;16.92;;;10.10;;
325;SDS011;150;52.352;14.058;2022-12-10T04:17:45;15.13;;;10.30;;
325;SDS011;150;52.352;14.058;2022-12-10T04:20:12;19.67;;;11.93;;
325;SDS011;150;52.352;14.058;2022-12-10T04:22:54;19.27;;;11.45;;
325;SDS011;150;52.352;14.058;2022-12-10T04:25:39;20.08;;;11.27;;
325;SDS011;150;52.352;14.058;2022-12-10T04:28:24;16.00;;;11.27;;
325;SDS011;150;52.352;14.058;2022-12-10T04:30:53;18.02;;;11.35;;
325;SDS011;150;52.352;14.058;2022-12-10T04:33:20;17.40;;;10.65;;
325;SDS011;150;52.352;14.058;2022-12-10T04:35:47;19.17;;;12.32;;
325;SDS011;150;52.352;14.058;2022-12-10T04:38:15;13.80;;;10.30;;
325;SDS011;150;52.352;14.058;2022-12-10T04:40:42;20.17;;;11.95;;
325;SDS011;150;52.352;14.058;2022-12-10T04:43:18;17.55;;;11.45;;
325;SDS011;150;52.352;14.058;2022-12-10T04:45:45;16.38;;;10.27;;
325;SDS011;150;52.352;14.058;2022-12-10T04:48:12;19.90;;;12.30;;
325;SDS011;150;52.352;14.058;2022-12-10T04:50:39;17.23;;;10.67;;
325;SDS011;150;52.352;14.058;2022-12-10T04:53:06;19.23;;;10.63;;
325;SDS011;150;52.352;14.058;2022-12-10T04:55:35;17.52;;;10.68;;
325;SDS011;150;52.352;14.058;2022-12-10T04:58:02;17.08;;;10.68;;
325;SDS011;150;52.352;14.058;2022-12-10T05:00:30;16.02;;;10.57;;
325;SDS011;150;52.352;14.058;2022-12-10T05:02:57;16.50;;;10.40;;
325;SDS011;150;52.352;14.058;2022-12-10T05:05:24;17.05;;;11.18;;
325;SDS011;150;52.352;14.058;2022-12-10T05:07:51;15.40;;;8.90;;
325;SDS011;150;52.352;14.058;2022-12-10T05:10:18;18.45;;;11.38;;
325;SDS011;150;52.352;14.058;2022-12-10T05:12:47;19.05;;;12.00;;
325;SDS011;150;52.352;14.058;2022-12-10T05:15:14;16.83;;;11.27;;
325;SDS011;150;52.352;14.058;2022-12-10T05:17:41;16.52;;;10.60;;
325;SDS011;150;52.352;14.058;2022-12-10T05:20:09;19.80;;;11.20;;
325;SDS011;150;52.352;14.058;2022-12-10T05:22:36;15.43;;;11.00;;
325;SDS011;150;52.352;14.058;2022-12-10T05:25:20;15.15;;;10.32;;
325;SDS011;150;52.352;14.058;2022-12-10T05:27:49;17.73;;;11.05;;
325;SDS011;150;52.352;14.058;2022-12-10T05:30:16;16.25;;;10.40;;
325;SDS011;150;52.352;14.058;2022-12-10T05:32:44;14.95;;;9.55;;
325;SDS011;150;52.352;14.058;2022-12-10T05:35:11;15.57;;;11.20;;
325;SDS011;150;52.352;14.058;2022-12-10T05:37:38;17.35;;;11.00;;
325;SDS011;150;52.352;14.058;2022-12-10T05:40:05;15.20;;;11.55;;
325;SDS011;150;52.352;14.058;2022-12-10T05:42:33;15.27;;;10.30;;
325;SDS011;150;52.352;14.058;2022-12-10T05:45:02;18.60;;;10.17;;
325;SDS011;150;52.352;14.058;2022-12-10T05:47:29;16.50;;;10.70;;
325;SDS011;150;52.352;14.058;2022-12-10T05:49:56;17.98;;;10.85;;
325;SDS011;150;52.352;14.058;2022-12-10T05:52:23;16.20;;;9.90;;
325;SDS011;150;52.352;14.058;2022-12-10T05:54:50;16.88;;;10.82;;
325;SDS011;150;52.352;14.058;2022-12-10T05:57:17;18.42;;;11.38;;
325;SDS011;150;52.352;14.058;2022-12-10T05:59:44;14.63;;;10.13;;
325;SDS011;150;52.352;14.058;2022-12-10T06:02:12;16.40;;;9.88;;
325;SDS011;150;52.352;14.058;2022-12-10T06:04:39;17.88;;;10.38;;
325;SDS011;150;52.352;14.058;2022-12-10T06:07:06;16.00;;;10.52;;
325;SDS011;150;52.352;14.058;2022-12-10T06:09:33;16.60;;;10.57;;
325;SDS011;150;52.352;14.058;2022-12-10T06:12:00;20.92;;;11.90;;
325;SDS011;150;52.352;14.058;2022-12-10T06:14:26;14.82;;;10.40;;
325;SDS011;150;52.352;14.058;2022-12-10T06:16:53;18.58;;;10.80;;
325;SDS011;150;52.352;14.058;2022-12-10T06:19:21;16.67;;;10.18;;
325;SDS011;150;52.352;14.058;2022-12-10T06:21:49;18.00;;;10.30;;
325;SDS011;150;52.352;14.058;2022-12-10T06:24:16;16.00;;;11.25;;
325;SDS011;150;52.352;14.058;2022-12-10T06:26:43;19.63;;;12.38;;
325;SDS011;150;52.352;14.058;2022-12-10T06:29:09;16.10;;;10.93;;
325;SDS011;150;52.352;14.058;2022-12-10T06:31:36;19.70;;;13.77;;
325;SDS011;150;52.352;14.058;2022-12-10T06:34:02;17.25;;;10.77;;
325;SDS011;150;52.352;14.058;2022-12-10T06:36:31;17.25;;;10.50;;
325;SDS011;150;52.352;14.058;2022-12-10T06:38:57;16.08;;;10.80;;
325;SDS011;150;52.352;14.058;2022-12-10T06:41:24;17.52;;;10.82;;
325;SDS011;150;52.352;14.058;2022-12-10T06:43:51;17.00;;;10.70;;
325;SDS011;150;52.352;14.058;2022-12-10T06:46:18;17.50;;;10.73;;
325;SDS011;150;52.352;14.058;2022-12-10T06:48:46;13.00;;;10.07;;
325;SDS011;150;52.352;14.058;2022-12-10T06:51:14;18.30;;;11.00;;
325;SDS011;150;52.352;14.058;2022-12-10T06:53:43;14.80;;;9.80;;
325;SDS011;150;52.352;14.058;2022-12-10T06:56:11;14.10;;;9.40;;
325;SDS011;150;52.352;14.058;2022-12-10T06:58:39;16.40;;;10.52;;
325;SDS011;150;52.352;14.058;2022-12-10T07:01:08;15.27;;;10.80;;
325;SDS011;150;52.352;14.058;2022-12-10T07:03:36;15.43;;;9.13;;
325;SDS011;150;52.352;14.058;2022-12-10T07:06:04;17.17;;;10.20;;
325;SDS011;150;52.352;14.058;2022-12-10T07:08:32;15.13;;;9.38;;
325;SDS011;150;52.352;14.058;2022-12-10T07:11:04;12.90;;;8.90;;
325;SDS011;150;52.352;14.058;2022-12-10T07:13:31;14.68;;;9.93;;
325;SDS011;150;52.352;14.058;2022-12-10T07:15:58;11.97;;;8.67;;
325;SDS011;150;52.352;14.058;2022-12-10T07:18:25;13.82;;;8.68;;
325;SDS011;150;52.352;14.058;2022-12-10T07:20:53;15.63;;;9.80;;
325;SDS011;150;52.352;14.058;2022-12-10T07:23:20;12.82;;;9.05;;
325;SDS011;150;52.352;14.058;2022-12-10T07:25:48;14.77;;;9.55;;
325;SDS011;150;52.352;14.058;2022-12-10T07:28:16;13.50;;;9.32;;
325;SDS011;150;52.352;14.058;2022-12-10T07:30:43;15.75;;;10.18;;
325;SDS011;150;52.352;14.058;2022-12-10T07:33:10;12.23;;;8.63;;
325;SDS011;150;52.352;14.058;2022-12-10T07:35:37;12.60;;;9.20;;
325;SDS011;150;52.352;14.058;2022-12-10T07:38:05;15.43;;;9.35;;
325;SDS011;150;52.352;14.058;2022-12-10T07:40:32;13.27;;;8.57;;
325;SDS011;150;52.352;14.058;2022-12-10T07:42:59;13.48;;;8.50;;
325;SDS011;150;52.352;14.058;2022-12-10T07:45:27;11.07;;;7.80;;
325;SDS011;150;52.352;14.058;2022-12-10T07:47:54;15.57;;;9.63;;
325;SDS011;150;52.352;14.058;2022-12-10T07:50:21;12.27;;;8.98;;
325;SDS011;150;52.352;14.058;2022-12-10T07:52:48;15.23;;;9.68;;
325;SDS011;150;52.352;14.058;2022-12-10T07:55:15;19.60;;;11.40;;
325;SDS011;150;52.352;14.058;2022-12-10T07:57:42;21.40;;;12.65;;
325;SDS011;150;52.352;14.058;2022-12-10T08:00:10;13.50;;;9.30;;
325;SDS011;150;52.352;14.058;2022-12-10T08:02:39;12.75;;;8.48;;
325;SDS011;150;52.352;14.058;2022-12-10T08:05:06;11.95;;;9.88;;
325;SDS011;150;52.352;14.058;2022-12-10T08:07:34;12.80;;;9.73;;
325;SDS011;150;52.352;14.058;2022-12-10T08:10:01;14.43;;;11.80;;
325;SDS011;150;52.352;14.058;2022-12-10T08:12:28;13.15;;;10.57;;
325;SDS011;150;52.352;14.058;2022-12-10T08:14:55;13.30;;;9.23;;
325;SDS011;150;52.352;14.058;2022-12-10T08:17:22;11.80;;;8.65;;
325;SDS011;150;52.352;14.058;2022-12-10T08:19:53;16.02;;;12.88;;
325;SDS011;150;52.352;14.058;2022-12-10T08:22:20;11.38;;;9.15;;
325;SDS011;150;52.352;14.058;2022-12-10T08:24:47;11.32;;;7.65;;
325;SDS011;150;52.352;14.058;2022-12-10T08:27:14;12.07;;;8.23;;
325;SDS011;150;52.352;14.058;2022-12-10T08:29:41;10.85;;;7.53;;
325;SDS011;150;52.352;14.058;2022-12-10T08:32:08;11.15;;;7.35;;
325;SDS011;150;52.352;14.058;2022-12-10T08:34:35;10.90;;;7.75;;
325;SDS011;150;52.352;14.058;2022-12-10T08:37:06;12.35;;;7.57;;
325;SDS011;150;52.352;14.058;2022-12-10T08:39:33;10.15;;;8.55;;
325;SDS011;150;52.352;14.058;2022-12-10T08:42:00;11.90;;;8.02;;
325;SDS011;150;52.352;14.058;2022-12-10T08:44:30;11.18;;;7.80;;
325;SDS011;150;52.352;14.058;2022-12-10T08:46:57;11.90;;;8.00;;
325;SDS011;150;52.352;14.058;2022-12-10T08:49:24;14.63;;;8.10;;
325;SDS011;150;52.352;14.058;2022-12-10T08:51:51;9.98;;;7.18;;
325;SDS011;150;52.352;14.058;2022-12-10T08:54:19;11.63;;;7.97;;
325;SDS011;150;52.352;14.058;2022-12-10T08:56:46;11.63;;;7.65;;
325;SDS011;150;52.352;14.058;2022-12-10T08:59:13;10.98;;;7.80;;
325;SDS011;150;52.352;14.058;2022-12-10T09:01:40;13.38;;;9.00;;
325;SDS011;150;52.352;14.058;2022-12-10T09:04:08;11.52;;;8.18;;
325;SDS011;150;52.352;14.058;2022-12-10T09:06:35;11.77;;;8.48;;
325;SDS011;150;52.352;14.058;2022-12-10T09:09:02;13.52;;;7.70;;
325;SDS011;150;52.352;14.058;2022-12-10T09:11:32;9.70;;;6.40;;
325;SDS011;150;52.352;14.058;2022-12-10T09:14:00;11.38;;;7.50;;
325;SDS011;150;52.352;14.058;2022-12-10T09:16:27;10.48;;;6.97;;
325;SDS011;150;52.352;14.058;2022-12-10T09:18:54;11.20;;;6.65;;
325;SDS011;150;52.352;14.058;2022-12-10T09:21:24;9.98;;;6.78;;
325;SDS011;150;52.352;14.058;2022-12-10T09:23:51;10.10;;;7.05;;
325;SDS011;150;52.352;14.058;2022-12-10T09:26:18;10.77;;;7.68;;
325;SDS011;150;52.352;14.058;2022-12-10T09:28:48;9.85;;;6.93;;
325;SDS011;150;52.352;14.058;2022-12-10T09:31:18;9.23;;;7.17;;
325;SDS011;150;52.352;14.058;2022-12-10T09:33:47;12.73;;;8.07;;
325;SDS011;150;52.352;14.058;2022-12-10T09:36:15;14.23;;;8.90;;
325;SDS011;150;52.352;14.058;2022-12-10T09:38:43;12.30;;;8.25;;
325;SDS011;150;52.352;14.058;2022-12-10T09:41:16;9.50;;;7.28;;
325;SDS011;150;52.352;14.058;2022-12-10T09:44:03;9.90;;;7.23;;
325;SDS011;150;52.352;14.058;2022-12-10T09:46:37;12.20;;;7.30;;
325;SDS011;150;52.352;14.058;2022-12-10T09:49:15;9.68;;;6.70;;
325;SDS011;150;52.352;14.058;2022-12-10T09:51:49;12.05;;;7.50;;
325;SDS011;150;52.352;14.058;2022-12-10T09:54:22;11.25;;;7.68;;
325;SDS011;150;52.352;14.058;2022-12-10T09:56:51;10.40;;;7.18;;
325;SDS011;150;52.352;14.058;2022-12-10T09:59:23;11.90;;;7.30;;
325;SDS011;150;52.352;14.058;2022-12-10T10:01:59;12.00;;;9.70;;
325;SDS011;150;52.352;14.058;2022-12-10T10:04:29;11.77;;;8.02;;
325;SDS011;150;52.352;14.058;2022-12-10T10:06:56;11.63;;;8.57;;
325;SDS011;150;52.352;14.058;2022-12-10T10:09:23;10.05;;;6.70;;
325;SDS011;150;52.352;14.058;2022-12-10T10:11:51;10.77;;;7.90;;
325;SDS011;150;52.352;14.058;2022-12-10T10:14:19;12.00;;;8.27;;
325;SDS011;150;52.352;14.058;2022-12-10T10:16:53;9.52;;;7.28;;
325;SDS011;150;52.352;14.058;2022-12-10T10:19:29;13.60;;;8.88;;
325;SDS011;150;52.352;14.058;2022-12-10T10:22:01;12.80;;;9.20;;
325;SDS011;150;52.352;14.058;2022-12-10T10:24:32;14.38;;;9.82;;
325;SDS011;150;52.352;14.058;2022-12-10T10:27:11;12.05;;;8.60;;
325;SDS011;150;52.352;14.058;2022-12-10T10:29:43;10.27;;;7.30;;
325;SDS011;150;52.352;14.058;2022-12-10T10:32:14;10.93;;;7.38;;
325;SDS011;150;52.352;14.058;2022-12-10T10:34:45;9.27;;;7.25;;
325;SDS011;150;52.352;14.058;2022-12-10T10:37:19;11.35;;;8.35;;
325;SDS011;150;52.352;14.058;2022-12-10T10:39:47;8.98;;;7.18;;
325;SDS011;150;52.352;14.058;2022-12-10T10:42:25;9.43;;;7.28;;
325;SDS011;150;52.352;14.058;2022-12-10T10:45:00;10.43;;;7.70;;
325;SDS011;150;52.352;14.058;2022-12-10T10:47:31;12.30;;;8.05;;
325;SDS011;150;52.352;14.058;2022-12-10T10:50:02;10.93;;;8.20;;
325;SDS011;150;52.352;14.058;2022-12-10T10:52:32;10.63;;;8.15;;
325;SDS011;150;52.352;14.058;2022-12-10T10:55:05;11.43;;;7.90;;
325;SDS011;150;52.352;14.058;2022-12-10T10:57:57;12.90;;;8.00;;
325;SDS011;150;52.352;14.058;2022-12-10T11:00:25;12.27;;;8.05;;
325;SDS011;150;52.352;14.058;2022-12-10T11:02:52;12.98;;;9.18;;
325;SDS011;150;52.352;14.058;2022-12-10T11:05:20;13.40;;;9.38;;
325;SDS011;150;52.352;14.058;2022-12-10T11:07:56;14.20;;;10.60;;
325;SDS011;150;52.352;14.058;2022-12-10T11:10:24;10.73;;;8.55;;
325;SDS011;150;52.352;14.058;2022-12-10T11:12:53;19.27;;;10.38;;
325;SDS011;150;52.352;14.058;2022-12-10T11:15:30;13.45;;;8.30;;
325;SDS011;150;52.352;14.058;2022-12-10T11:17:59;12.98;;;8.95;;
325;SDS011;150;52.352;14.058;2022-12-10T11:20:46;14.00;;;8.80;;
325;SDS011;150;52.352;14.058;2022-12-10T11:23:25;12.43;;;8.60;;
325;SDS011;150;52.352;14.058;2022-12-10T11:25:55;11.55;;;8.55;;
325;SDS011;150;52.352;14.058;2022-12-10T11:28:39;13.90;;;8.95;;
325;SDS011;150;52.352;14.058;2022-12-10T11:31:21;11.65;;;8.52;;
325;SDS011;150;52.352;14.058;2022-12-10T11:33:58;13.40;;;8.15;;
325;SDS011;150;52.352;14.058;2022-12-10T11:36:32;14.40;;;9.60;;
325;SDS011;150;52.352;14.058;2022-12-10T11:39:07;13.98;;;10.15;;
325;SDS011;150;52.352;14.058;2022-12-10T11:41:46;13.23;;;9.48;;
325;SDS011;150;52.352;14.058;2022-12-10T11:44:19;13.52;;;9.40;;
325;SDS011;150;52.352;14.058;2022-12-10T11:46:59;12.52;;;8.15;;
325;SDS011;150;52.352;14.058;2022-12-10T11:49:41;10.18;;;7.80;;
325;SDS011;150;52.352;14.058;2022-12-10T11:52:20;12.23;;;9.80;;
325;SDS011;150;52.352;14.058;2022-12-10T11:55:02;15.88;;;9.75;;
325;SDS011;150;52.352;14.058;2022-12-10T11:57:39;13.35;;;10.07;;
325;SDS011;150;52.352;14.058;2022-12-10T12:00:17;18.80;;;10.02;;
325;SDS011;150;52.352;14.058;2022-12-10T12:02:58;12.27;;;9.38;;
325;SDS011;150;52.352;14.058;2022-12-10T12:05:52;13.90;;;9.23;;
325;SDS011;150;52.352;14.058;2022-12-10T12:08:34;12.37;;;8.17;;
325;SDS011;150;52.352;14.058;2022-12-10T12:11:15;20.33;;;10.15;;
325;SDS011;150;52.352;14.058;2022-12-10T12:13:57;14.30;;;10.80;;
325;SDS011;150;52.352;14.058;2022-12-10T12:16:30;16.05;;;9.85;;
325;SDS011;150;52.352;14.058;2022-12-10T12:19:05;13.25;;;8.32;;
325;SDS011;150;52.352;14.058;2022-12-10T12:21:38;10.73;;;8.87;;
325;SDS011;150;52.352;14.058;2022-12-10T12:24:09;13.70;;;8.60;;
325;SDS011;150;52.352;14.058;2022-12-10T12:26:43;12.93;;;8.63;;
325;SDS011;150;52.352;14.058;2022-12-10T12:29:18;15.57;;;11.68;;
325;SDS011;150;52.352;14.058;2022-12-10T12:31:52;14.00;;;9.70;;
325;SDS011;150;52.352;14.058;2022-12-10T12:34:36;13.70;;;10.10;;
325;SDS011;150;52.352;14.058;2022-12-10T12:37:09;12.48;;;9.68;;
325;SDS011;150;52.352;14.058;2022-12-10T12:39:43;16.27;;;9.45;;
325;SDS011;150;52.352;14.058;2022-12-10T12:42:16;14.02;;;9.98;;
325;SDS011;150;52.352;14.058;2022-12-10T12:44:50;14.90;;;9.20;;
325;SDS011;150;52.352;14.058;2022-12-10T12:47:29;14.50;;;8.68;;
325;SDS011;150;52.352;14.058;2022-12-10T12:50:04;14.40;;;9.45;;
325;SDS011;150;52.352;14.058;2022-12-10T12:52:39;12.90;;;8.93;;
325;SDS011;150;52.352;14.058;2022-12-10T12:55:15;15.25;;;9.27;;
325;SDS011;150;52.352;14.058;2022-12-10T12:57:46;14.15;;;9.00;;
325;SDS011;150;52.352;14.058;2022-12-10T13:00:20;13.73;;;9.93;;
325;SDS011;150;52.352;14.058;2022-12-10T13:02:52;14.88;;;9.50;;
325;SDS011;150;52.352;14.058;2022-12-10T13:05:28;14.50;;;9.80;;
325;SDS011;150;52.352;14.058;2022-12-10T13:08:22;11.85;;;8.50;;
325;SDS011;150;52.352;14.058;2022-12-10T13:10:53;14.90;;;9.67;;
325;SDS011;150;52.352;14.058;2022-12-10T13:13:24;12.68;;;9.07;;
325;SDS011;150;52.352;14.058;2022-12-10T13:15:55;12.13;;;8.60;;
325;SDS011;150;52.352;14.058;2022-12-10T13:18:35;14.52;;;10.82;;
325;SDS011;150;52.352;14.058;2022-12-10T13:21:26;14.85;;;9.60;;
325;SDS011;150;52.352;14.058;2022-12-10T13:24:05;12.85;;;8.88;;
325;SDS011;150;52.352;14.058;2022-12-10T13:26:34;15.30;;;10.63;;
325;SDS011;150;52.352;14.058;2022-12-10T13:29:12;12.50;;;9.07;;
325;SDS011;150;52.352;14.058;2022-12-10T13:31:57;17.73;;;11.05;;
325;SDS011;150;52.352;14.058;2022-12-10T13:34:34;19.63;;;15.63;;
325;SDS011;150;52.352;14.058;2022-12-10T13:37:06;18.73;;;14.50;;
325;SDS011;150;52.352;14.058;2022-12-10T13:40:13;14.70;;;10.63;;
325;SDS011;150;52.352;14.058;2022-12-10T13:42:56;16.20;;;10.57;;
325;SDS011;150;52.352;14.058;2022-12-10T13:45:51;14.07;;;10.85;;
325;SDS011;150;52.352;14.058;2022-12-10T13:48:51;14.65;;;10.35;;
325;SDS011;150;52.352;14.058;2022-12-10T13:51:31;14.85;;;9.50;;
325;SDS011;150;52.352;14.058;2022-12-10T13:54:44;15.27;;;9.27;;
325;SDS011;150;52.352;14.058;2022-12-10T13:57:41;12.80;;;9.30;;
325;SDS011;150;52.352;14.058;2022-12-10T14:00:29;13.90;;;9.10;;
325;SDS011;150;52.352;14.058;2022-12-10T14:06:19;11.60;;;9.05;;
325;SDS011;150;52.352;14.058;2022-12-10T14:08:59;13.32;;;9.55;;
325;SDS011;150;52.352;14.058;2022-12-10T14:11:47;11.37;;;8.43;;
325;SDS011;150;52.352;14.058;2022-12-10T14:14:21;15.07;;;10.43;;
325;SDS011;150;52.352;14.058;2022-12-10T14:16:56;17.05;;;10.43;;
325;SDS011;150;52.352;14.058;2022-12-10T14:19:33;16.25;;;9.73;;
325;SDS011;150;52.352;14.058;2022-12-10T14:22:08;14.98;;;9.98;;
325;SDS011;150;52.352;14.058;2022-12-10T14:24:49;13.07;;;9.82;;
325;SDS011;150;52.352;14.058;2022-12-10T14:27:20;15.77;;;10.00;;
325;SDS011;150;52.352;14.058;2022-12-10T14:29:58;12.68;;;9.45;;
325;SDS011;150;52.352;14.058;2022-12-10T14:32:34;15.43;;;9.40;;
325;SDS011;150;52.352;14.058;2022-12-10T14:35:12;13.27;;;10.00;;
325;SDS011;150;52.352;14.058;2022-12-10T14:37:41;13.75;;;9.80;;
325;SDS011;150;52.352;14.058;2022-12-10T14:40:31;16.35;;;10.60;;
325;SDS011;150;52.352;14.058;2022-12-10T14:43:18;15.60;;;10.80;;
325;SDS011;150;52.352;14.058;2022-12-10T14:46:00;19.38;;;12.23;;
325;SDS011;150;52.352;14.058;2022-12-10T14:48:44;14.90;;;9.93;;
325;SDS011;150;52.352;14.058;2022-12-10T14:51:13;13.88;;;10.18;;
325;SDS011;150;52.352;14.058;2022-12-10T14:53:46;14.18;;;10.05;;
325;SDS011;150;52.352;14.058;2022-12-10T14:56:34;16.53;;;10.13;;
325;SDS011;150;52.352;14.058;2022-12-10T14:59:12;17.05;;;11.05;;
325;SDS011;150;52.352;14.058;2022-12-10T15:01:53;14.85;;;9.27;;
325;SDS011;150;52.352;14.058;2022-12-10T15:04:40;16.35;;;10.35;;
325;SDS011;150;52.352;14.058;2022-12-10T15:07:11;13.70;;;9.93;;
325;SDS011;150;52.352;14.058;2022-12-10T15:10:07;12.27;;;9.40;;
325;SDS011;150;52.352;14.058;2022-12-10T15:12:54;16.42;;;9.73;;
325;SDS011;150;52.352;14.058;2022-12-10T15:15:42;13.23;;;9.17;;
325;SDS011;150;52.352;14.058;2022-12-10T15:18:10;15.70;;;10.48;;
325;SDS011;150;52.352;14.058;2022-12-10T15:20:50;18.63;;;10.50;;
325;SDS011;150;52.352;14.058;2022-12-10T15:23:30;13.23;;;9.77;;
325;SDS011;150;52.352;14.058;2022-12-10T15:26:13;12.88;;;10.48;;
325;SDS011;150;52.352;14.058;2022-12-10T15:32:17;17.38;;;9.68;;
325;SDS011;150;52.352;14.058;2022-12-10T15:34:48;17.40;;;10.57;;
325;SDS011;150;52.352;14.058;2022-12-10T15:37:33;11.75;;;8.50;;
325;SDS011;150;52.352;14.058;2022-12-10T15:40:19;17.00;;;9.50;;
325;SDS011;150;52.352;14.058;2022-12-10T15:43:12;15.07;;;10.77;;
325;SDS011;150;52.352;14.058;2022-12-10T15:45:52;17.58;;;11.32;;
325;SDS011;150;52.352;14.058;2022-12-10T15:48:21;16.27;;;10.30;;